createdAt,value
2023-03-02T00:02:17.798Z,5.00
2023-03-02T00:04:49.897Z,10.90
2023-03-02T00:07:23.943Z,7.50
2023-03-02T00:09:51.004Z,3.65
2023-03-02T00:12:17.847Z,4.75
2023-03-02T00:14:45.077Z,5.80
2023-03-02T00:17:11.941Z,4.47
2023-03-02T00:19:39.022Z,5.45
2023-03-02T00:22:05.997Z,5.00
2023-03-02T00:24:32.696Z,5.50
2023-03-02T00:26:59.329Z,5.45
2023-03-02T00:29:25.999Z,5.18
2023-03-02T00:31:52.890Z,7.15
2023-03-02T00:34:19.606Z,3.50
2023-03-02T00:36:47.783Z,5.03
2023-03-02T00:39:14.302Z,6.50
2023-03-02T00:41:40.820Z,4.82
2023-03-02T00:44:07.493Z,6.45
2023-03-02T00:46:34.469Z,6.53
2023-03-02T00:49:01.258Z,7.50
2023-03-02T00:51:28.390Z,6.10
2023-03-02T00:53:54.976Z,5.50
2023-03-02T00:56:21.491Z,6.80
2023-03-02T00:58:48.018Z,5.78
2023-03-02T01:01:15.899Z,5.28
2023-03-02T01:06:18.397Z,6.32
2023-03-02T01:08:45.606Z,6.70
2023-03-02T01:11:16.319Z,4.18
2023-03-02T01:13:43.324Z,6.47
2023-03-02T01:16:10.334Z,5.45
2023-03-02T01:18:38.886Z,4.72
2023-03-02T01:21:11.743Z,5.70
2023-03-02T01:23:38.265Z,7.63
2023-03-02T01:26:04.862Z,5.75
2023-03-02T01:28:31.482Z,7.25
2023-03-02T01:30:58.137Z,2.60
2023-03-02T01:33:24.772Z,6.70
2023-03-02T01:35:51.447Z,6.05
2023-03-02T01:38:18.327Z,6.78
2023-03-02T01:40:44.881Z,8.13
2023-03-02T01:43:15.520Z,6.05
2023-03-02T01:45:51.934Z,9.15
2023-03-02T01:48:35.516Z,5.38
2023-03-02T01:51:04.942Z,3.08
2023-03-02T01:53:34.450Z,6.20
2023-03-02T01:56:03.715Z,7.97
2023-03-02T01:58:34.474Z,8.52
2023-03-02T02:01:01.327Z,6.72
2023-03-02T02:03:30.530Z,8.02
2023-03-02T02:06:30.778Z,5.18
2023-03-02T02:09:00.043Z,5.90
2023-03-02T02:13:59.328Z,4.38
2023-03-02T02:16:32.514Z,4.32
2023-03-02T02:19:00.965Z,4.28
2023-03-02T02:21:28.751Z,5.13
2023-03-02T02:24:09.738Z,4.65
2023-03-02T02:26:45.649Z,5.07
2023-03-02T02:29:19.109Z,3.92
2023-03-02T02:32:00.661Z,4.18
2023-03-02T02:34:58.850Z,6.22
2023-03-02T02:37:51.805Z,4.73
2023-03-02T02:40:38.389Z,4.15
2023-03-02T02:43:06.200Z,4.47
2023-03-02T02:45:33.448Z,4.70
2023-03-02T02:48:00.103Z,5.40
2023-03-02T02:50:35.249Z,6.10
2023-03-02T02:53:11.290Z,5.72
2023-03-02T02:55:39.363Z,7.50
2023-03-02T02:58:30.040Z,6.32
2023-03-02T03:00:56.849Z,7.57
2023-03-02T03:03:46.422Z,8.38
2023-03-02T03:06:18.752Z,7.13
2023-03-02T03:08:45.819Z,5.05
2023-03-02T03:11:15.319Z,6.28
2023-03-02T03:13:43.597Z,4.70
2023-03-02T03:16:13.854Z,5.17
2023-03-02T03:18:44.801Z,5.97
2023-03-02T03:21:11.401Z,3.92
2023-03-02T03:23:38.461Z,6.25
2023-03-02T03:26:06.606Z,3.25
2023-03-02T03:28:33.954Z,6.78
2023-03-02T03:31:00.610Z,6.57
2023-03-02T03:33:27.697Z,5.05
2023-03-02T03:35:54.413Z,5.82
2023-03-02T03:38:21.192Z,5.78
2023-03-02T03:40:47.758Z,6.55
2023-03-02T03:43:15.209Z,5.80
2023-03-02T03:45:41.762Z,7.13
2023-03-02T03:48:08.476Z,6.43
2023-03-02T03:50:35.478Z,6.78
2023-03-02T03:53:03.841Z,6.05
2023-03-02T03:55:30.629Z,5.03
2023-03-02T03:57:57.167Z,5.35
2023-03-02T04:00:24.251Z,8.10
2023-03-02T04:02:51.032Z,7.85
2023-03-02T04:05:17.736Z,4.85
2023-03-02T04:07:44.324Z,8.18
2023-03-02T04:10:12.274Z,7.93
2023-03-02T04:12:41.349Z,7.60
2023-03-02T04:17:36.227Z,8.13
2023-03-02T04:20:04.697Z,5.18
2023-03-02T04:22:31.177Z,3.72
2023-03-02T04:24:57.707Z,10.52
2023-03-02T04:27:24.413Z,6.22
2023-03-02T04:29:52.932Z,6.53
2023-03-02T04:32:20.105Z,6.40
2023-03-02T04:34:46.763Z,6.20
2023-03-02T04:37:13.419Z,5.20
2023-03-02T04:39:40.049Z,6.85
2023-03-02T04:42:06.744Z,5.47
2023-03-02T04:44:33.307Z,7.18
2023-03-02T04:46:59.865Z,7.25
2023-03-02T04:49:26.409Z,5.75
2023-03-02T04:51:52.964Z,7.57
2023-03-02T04:54:26.166Z,8.07
2023-03-02T04:56:53.945Z,7.38
2023-03-02T04:59:25.889Z,5.80
2023-03-02T05:01:59.360Z,6.68
2023-03-02T05:04:27.046Z,6.50
2023-03-02T05:06:53.902Z,8.70
2023-03-02T05:09:21.207Z,11.35
2023-03-02T05:11:47.728Z,12.30
2023-03-02T05:14:14.316Z,8.85
2023-03-02T05:16:42.160Z,11.13
2023-03-02T05:19:11.544Z,6.50
2023-03-02T05:21:38.616Z,9.02
2023-03-02T05:24:05.664Z,8.45
2023-03-02T05:26:32.863Z,9.52
2023-03-02T05:28:59.665Z,14.27
2023-03-02T05:31:35.223Z,10.52
2023-03-02T05:34:05.332Z,9.85
2023-03-02T05:36:32.956Z,12.43
2023-03-02T05:38:59.653Z,9.95
2023-03-02T05:41:27.076Z,8.45
2023-03-02T05:43:54.006Z,7.43
2023-03-02T05:46:22.094Z,8.65
2023-03-02T05:48:48.919Z,9.15
2023-03-02T05:51:18.468Z,8.60
2023-03-02T05:53:45.085Z,9.32
2023-03-02T05:56:11.814Z,10.02
2023-03-02T05:58:38.463Z,10.00
2023-03-02T06:01:13.163Z,7.93
2023-03-02T06:03:42.122Z,12.35
2023-03-02T06:06:08.940Z,11.50
2023-03-02T06:08:40.940Z,9.40
2023-03-02T06:11:08.160Z,9.73
2023-03-02T06:13:35.135Z,12.80
2023-03-02T06:16:01.758Z,13.10
2023-03-02T06:18:28.833Z,9.80
2023-03-02T06:20:55.564Z,8.55
2023-03-02T06:23:22.392Z,9.20
2023-03-02T06:25:48.985Z,10.25
2023-03-02T06:28:16.456Z,8.45
2023-03-02T06:30:43.056Z,6.82
2023-03-02T06:33:09.666Z,13.10
2023-03-02T06:35:36.476Z,7.95
2023-03-02T06:38:03.207Z,7.40
2023-03-02T06:40:30.301Z,7.45
2023-03-02T06:42:57.250Z,7.38
2023-03-02T06:45:23.886Z,9.93
2023-03-02T06:47:50.409Z,7.35
2023-03-02T06:50:17.026Z,6.68
2023-03-02T06:52:43.659Z,6.85
2023-03-02T06:55:10.562Z,7.70
2023-03-02T06:57:37.752Z,10.85
2023-03-02T07:00:10.306Z,9.30
2023-03-02T07:02:37.752Z,14.82
2023-03-02T07:05:05.484Z,8.23
2023-03-02T07:07:32.297Z,7.63
2023-03-02T07:09:59.022Z,9.45
2023-03-02T07:12:25.601Z,10.20
2023-03-02T07:14:52.656Z,6.82
2023-03-02T07:17:19.305Z,8.85
2023-03-02T07:19:46.214Z,7.22
2023-03-02T07:22:12.706Z,8.20
2023-03-02T07:24:39.340Z,10.23
2023-03-02T07:27:05.922Z,11.10
2023-03-02T07:29:32.553Z,9.50
2023-03-02T07:32:02.213Z,11.35
2023-03-02T07:34:29.025Z,10.10
2023-03-02T07:36:55.586Z,8.23
2023-03-02T07:39:22.228Z,6.75
2023-03-02T07:41:49.474Z,9.48
2023-03-02T07:44:16.199Z,14.75
2023-03-02T07:46:43.735Z,12.65
2023-03-02T07:49:10.342Z,11.30
2023-03-02T07:51:36.880Z,12.48
2023-03-02T07:54:05.060Z,7.35
2023-03-02T07:56:31.763Z,10.57
2023-03-02T07:58:58.476Z,11.98
2023-03-02T08:01:25.164Z,16.35
2023-03-02T08:03:51.826Z,10.05
2023-03-02T08:06:18.609Z,13.07
2023-03-02T08:08:45.294Z,13.07
2023-03-02T08:11:17.672Z,15.60
2023-03-02T08:13:45.512Z,31.10
2023-03-02T08:16:14.466Z,20.75
2023-03-02T08:21:13.679Z,18.67
2023-03-02T08:23:40.554Z,16.92
2023-03-02T08:26:07.170Z,18.33
2023-03-02T08:28:34.370Z,8.65
2023-03-02T08:31:02.118Z,5.38
2023-03-02T08:33:29.268Z,11.52
2023-03-02T08:36:26.204Z,6.45
2023-03-02T08:38:54.243Z,11.82
2023-03-02T08:41:22.887Z,7.82
2023-03-02T08:43:50.281Z,8.20
2023-03-02T08:46:19.071Z,10.65
2023-03-02T08:48:46.716Z,6.55
2023-03-02T08:51:15.956Z,6.13
2023-03-02T08:53:45.356Z,6.70
2023-03-02T08:56:36.363Z,9.73
2023-03-02T08:59:09.525Z,8.77
2023-03-02T09:01:37.706Z,10.57
2023-03-02T09:04:07.477Z,7.00
2023-03-02T09:06:38.149Z,8.93
2023-03-02T09:09:06.217Z,8.93
2023-03-02T09:11:33.259Z,8.65
2023-03-02T09:14:00.314Z,5.72
2023-03-02T09:16:27.267Z,6.75
2023-03-02T09:18:54.043Z,4.63
2023-03-02T09:21:20.749Z,7.53
2023-03-02T09:23:47.397Z,8.77
2023-03-02T09:26:13.964Z,13.95
2023-03-02T09:28:40.534Z,11.75
2023-03-02T09:31:08.400Z,8.68
2023-03-02T09:33:35.295Z,6.72
2023-03-02T09:36:09.386Z,6.90
2023-03-02T09:38:35.988Z,5.57
2023-03-02T09:41:20.636Z,5.03
2023-03-02T09:43:50.261Z,4.80
2023-03-02T09:46:54.042Z,9.77
2023-03-02T09:50:00.598Z,11.50
2023-03-02T09:52:35.267Z,11.07
2023-03-02T09:55:14.750Z,6.47
2023-03-02T09:57:42.088Z,5.68
2023-03-02T10:00:19.220Z,5.95
2023-03-02T10:02:48.413Z,5.37
2023-03-02T10:05:42.703Z,6.50
2023-03-02T10:08:20.679Z,9.60
2023-03-02T10:11:05.688Z,4.93
2023-03-02T10:13:47.603Z,7.50
2023-03-02T10:16:45.802Z,3.53
2023-03-02T10:19:42.107Z,9.07
2023-03-02T10:22:20.903Z,10.05
2023-03-02T10:27:20.515Z,6.13
2023-03-02T10:30:02.810Z,14.95
2023-03-02T10:32:38.175Z,9.82
2023-03-02T10:35:16.060Z,8.20
2023-03-02T10:37:42.901Z,21.17
2023-03-02T10:40:43.117Z,15.77
2023-03-02T10:43:18.620Z,7.75
2023-03-02T10:45:45.516Z,11.82
2023-03-02T10:48:14.293Z,10.23
2023-03-02T10:50:43.131Z,12.77
2023-03-02T10:53:18.268Z,7.22
2023-03-02T10:55:50.592Z,12.77
2023-03-02T10:58:31.249Z,10.07
2023-03-02T11:00:59.181Z,6.50
2023-03-02T11:03:28.720Z,13.10
2023-03-02T11:05:56.747Z,10.52
2023-03-02T11:08:26.119Z,6.70
2023-03-02T11:11:01.473Z,5.07
2023-03-02T11:13:37.441Z,5.80
2023-03-02T11:16:05.458Z,20.70
2023-03-02T11:18:43.028Z,14.00
2023-03-02T11:21:46.565Z,7.97
2023-03-02T11:24:29.574Z,12.25
2023-03-02T11:27:08.065Z,12.75
2023-03-02T11:29:40.625Z,9.45
2023-03-02T11:32:31.172Z,13.05
2023-03-02T11:35:02.971Z,8.95
2023-03-02T11:37:51.573Z,11.82
2023-03-02T11:40:41.786Z,11.57
2023-03-02T11:43:11.358Z,13.80
2023-03-02T11:45:46.896Z,13.00
2023-03-02T11:48:43.989Z,6.25
2023-03-02T11:51:18.508Z,12.95
2023-03-02T11:54:05.099Z,6.50
2023-03-02T11:56:35.179Z,12.50
2023-03-02T11:59:11.985Z,11.00
2023-03-02T12:01:40.345Z,6.00
2023-03-02T12:04:34.820Z,8.15
2023-03-02T12:07:04.610Z,13.70
2023-03-02T12:09:37.228Z,13.90
2023-03-02T12:12:19.091Z,11.30
2023-03-02T12:14:45.910Z,9.90
2023-03-02T12:17:20.656Z,10.05
2023-03-02T12:19:47.820Z,12.25
2023-03-02T12:22:26.705Z,10.10
2023-03-02T12:27:33.717Z,9.27
2023-03-02T12:30:15.735Z,4.65
2023-03-02T12:32:58.073Z,7.68
2023-03-02T12:35:25.324Z,5.18
2023-03-02T12:37:58.549Z,8.98
2023-03-02T12:41:13.391Z,7.38
2023-03-02T12:44:27.854Z,6.97
2023-03-02T12:46:56.518Z,6.50
2023-03-02T12:49:40.936Z,4.75
2023-03-02T12:52:23.678Z,7.55
2023-03-02T12:55:07.395Z,7.43
2023-03-02T12:57:37.046Z,7.50
2023-03-02T13:00:05.544Z,4.93
2023-03-02T13:02:34.660Z,7.20
2023-03-02T13:05:07.289Z,12.18
2023-03-02T13:07:41.334Z,9.80
2023-03-02T13:10:36.892Z,5.13
2023-03-02T13:13:16.078Z,10.52
2023-03-02T13:15:49.665Z,6.15
2023-03-02T13:18:16.682Z,14.43
2023-03-02T13:20:43.454Z,5.95
2023-03-02T13:23:14.202Z,10.13
2023-03-02T13:25:54.467Z,7.85
2023-03-02T13:28:36.836Z,6.00
2023-03-02T13:31:21.414Z,9.25
2023-03-02T13:33:50.667Z,11.00
2023-03-02T13:36:26.529Z,11.38
2023-03-02T13:38:56.420Z,12.13
2023-03-02T13:41:24.741Z,8.05
2023-03-02T13:43:51.470Z,13.25
2023-03-02T13:46:22.140Z,9.75
2023-03-02T13:49:09.249Z,9.88
2023-03-02T13:51:46.625Z,9.15
2023-03-02T13:54:17.123Z,7.72
2023-03-02T13:56:44.528Z,9.52
2023-03-02T13:59:17.705Z,8.85
2023-03-02T14:01:44.445Z,11.48
2023-03-02T14:04:17.738Z,5.47
2023-03-02T14:06:45.489Z,6.47
2023-03-02T14:09:12.140Z,9.48
2023-03-02T14:11:48.757Z,10.25
2023-03-02T14:14:24.972Z,6.80
2023-03-02T14:16:52.280Z,11.75
2023-03-02T14:19:20.141Z,9.50
2023-03-02T14:21:47.864Z,5.63
2023-03-02T14:24:14.816Z,7.03
2023-03-02T14:26:47.470Z,6.85
2023-03-02T14:29:22.765Z,7.32
2023-03-02T14:31:49.446Z,8.63
2023-03-02T14:34:17.655Z,16.02
2023-03-02T14:36:48.076Z,5.65
2023-03-02T14:39:38.527Z,10.60
2023-03-02T14:42:06.880Z,8.60
2023-03-02T14:44:33.418Z,8.95
2023-03-02T14:47:00.096Z,7.30
2023-03-02T14:49:26.714Z,7.95
2023-03-02T14:52:02.161Z,6.63
2023-03-02T14:54:51.705Z,5.32
2023-03-02T14:57:25.321Z,11.40
2023-03-02T14:59:54.780Z,8.25
2023-03-02T15:02:31.165Z,10.00
2023-03-02T15:04:57.941Z,8.43
2023-03-02T15:07:26.800Z,6.07
2023-03-02T15:12:21.105Z,9.43
2023-03-02T15:14:47.664Z,10.43
2023-03-02T15:17:14.184Z,10.27
2023-03-02T15:19:40.707Z,8.38
2023-03-02T15:22:07.489Z,8.80
2023-03-02T15:24:34.232Z,9.75
2023-03-02T15:27:00.802Z,5.68
2023-03-02T15:29:27.364Z,10.18
2023-03-02T15:31:54.076Z,8.30
2023-03-02T15:34:22.116Z,12.02
2023-03-02T15:36:48.792Z,9.50
2023-03-02T15:39:16.463Z,8.82
2023-03-02T15:41:43.320Z,11.02
2023-03-02T15:44:21.680Z,8.68
2023-03-02T15:46:59.426Z,8.43
2023-03-02T15:49:28.493Z,12.77
2023-03-02T15:51:57.642Z,11.15
2023-03-02T15:54:28.378Z,9.52
2023-03-02T15:56:55.373Z,9.05
2023-03-02T15:59:24.362Z,9.65
2023-03-02T16:01:51.572Z,13.65
2023-03-02T16:04:18.539Z,12.25
2023-03-02T16:06:45.305Z,12.93
2023-03-02T16:09:12.405Z,31.23
2023-03-02T16:11:39.059Z,13.32
2023-03-02T16:14:05.932Z,9.40
2023-03-02T16:16:32.803Z,10.98
2023-03-02T16:18:59.771Z,12.60
2023-03-02T16:21:28.696Z,10.50
2023-03-02T16:24:03.057Z,11.40
2023-03-02T16:26:30.268Z,20.35
2023-03-02T16:28:56.795Z,11.98
2023-03-02T16:31:26.644Z,16.45
2023-03-02T16:33:55.491Z,8.75
2023-03-02T16:36:22.391Z,8.25
2023-03-02T16:38:49.371Z,14.55
2023-03-02T16:41:19.249Z,18.20
2023-03-02T16:43:48.480Z,18.25
2023-03-02T16:46:16.525Z,17.67
2023-03-02T16:48:43.951Z,21.80
2023-03-02T16:51:10.979Z,23.90
2023-03-02T16:53:38.169Z,19.55
2023-03-02T16:56:04.930Z,14.32
2023-03-02T16:58:31.442Z,17.75
2023-03-02T17:00:58.075Z,15.63
2023-03-02T17:03:25.946Z,14.02
2023-03-02T17:05:52.507Z,15.02
2023-03-02T17:08:19.092Z,18.15
2023-03-02T17:10:45.681Z,13.88
2023-03-02T17:13:15.485Z,12.38
2023-03-02T17:15:42.159Z,21.42
2023-03-02T17:18:08.845Z,12.10
2023-03-02T17:20:35.871Z,10.20
2023-03-02T17:23:04.391Z,12.45
2023-03-02T17:25:30.988Z,11.02
2023-03-02T17:27:57.587Z,12.43
2023-03-02T17:30:24.245Z,12.93
2023-03-02T17:32:50.959Z,20.85
2023-03-02T17:35:17.449Z,11.43
2023-03-02T17:37:44.049Z,14.32
2023-03-02T17:40:15.591Z,9.23
2023-03-02T17:42:42.613Z,10.70
2023-03-02T17:45:15.244Z,10.20
2023-03-02T17:47:42.692Z,11.75
2023-03-02T17:50:10.377Z,13.13
2023-03-02T17:52:36.948Z,12.60
2023-03-02T17:55:04.249Z,11.43
2023-03-02T17:57:31.742Z,69.15
2023-03-02T17:59:58.480Z,53.58
2023-03-02T18:02:25.272Z,17.67
2023-03-02T18:04:51.834Z,20.73
2023-03-02T18:07:18.720Z,13.50
2023-03-02T18:09:45.537Z,12.70
2023-03-02T18:12:12.291Z,18.77
2023-03-02T18:14:39.344Z,13.13
2023-03-02T18:17:07.601Z,16.38
2023-03-02T18:19:34.298Z,10.40
2023-03-02T18:22:01.308Z,15.85
2023-03-02T18:24:27.856Z,14.30
2023-03-02T18:26:54.641Z,24.63
2023-03-02T18:29:22.520Z,12.82
2023-03-02T18:31:50.006Z,21.52
2023-03-02T18:34:16.646Z,13.45
2023-03-02T18:36:43.248Z,14.63
2023-03-02T18:39:09.805Z,17.48
2023-03-02T18:41:36.444Z,19.40
2023-03-02T18:44:03.584Z,18.75
2023-03-02T18:46:33.373Z,21.02
2023-03-02T18:49:01.009Z,14.98
2023-03-02T18:51:28.308Z,20.95
2023-03-02T18:53:55.679Z,19.33
2023-03-02T18:56:22.883Z,16.58
2023-03-02T18:58:51.558Z,19.15
2023-03-02T19:01:19.436Z,16.83
2023-03-02T19:03:46.143Z,27.13
2023-03-02T19:06:13.344Z,24.13
2023-03-02T19:08:40.363Z,25.70
2023-03-02T19:11:07.613Z,35.50
2023-03-02T19:13:34.432Z,21.65
2023-03-02T19:16:02.008Z,23.20
2023-03-02T19:18:29.244Z,26.08
2023-03-02T19:20:57.463Z,25.25
2023-03-02T19:23:24.737Z,28.87
2023-03-02T19:25:51.597Z,29.85
2023-03-02T19:28:18.289Z,28.63
2023-03-02T19:30:45.145Z,35.55
2023-03-02T19:33:11.784Z,34.58
2023-03-02T19:35:38.861Z,25.92
2023-03-02T19:38:06.909Z,23.45
2023-03-02T19:40:34.731Z,23.67
2023-03-02T19:43:03.088Z,22.63
2023-03-02T19:45:32.429Z,28.98
2023-03-02T19:48:00.859Z,28.55
2023-03-02T19:50:28.831Z,25.45
2023-03-02T19:52:59.371Z,25.30
2023-03-02T19:55:26.393Z,22.30
2023-03-02T19:57:59.583Z,18.38
2023-03-02T20:00:27.417Z,17.63
2023-03-02T20:02:54.127Z,21.05
2023-03-02T20:05:20.887Z,26.27
2023-03-02T20:07:47.483Z,20.45
2023-03-02T20:10:42.208Z,22.23
2023-03-02T20:13:09.582Z,22.98
2023-03-02T20:15:39.197Z,19.55
2023-03-02T20:18:08.251Z,21.65
2023-03-02T20:23:01.855Z,14.18
2023-03-02T20:25:28.660Z,17.88
2023-03-02T20:27:55.942Z,20.70
2023-03-02T20:30:34.758Z,16.42
2023-03-02T20:33:02.506Z,66.10
2023-03-02T20:35:32.806Z,22.17
2023-03-02T20:38:02.444Z,21.13
2023-03-02T20:40:29.416Z,21.52
2023-03-02T20:42:58.520Z,16.48
2023-03-02T20:47:51.985Z,18.48
2023-03-02T20:50:21.597Z,22.92
2023-03-02T20:52:48.303Z,19.02
2023-03-02T20:55:15.004Z,18.77
2023-03-02T20:57:41.745Z,16.95
2023-03-02T21:00:11.867Z,18.35
2023-03-02T21:02:38.408Z,18.42
2023-03-02T21:05:06.090Z,20.35
2023-03-02T21:07:35.656Z,16.27
2023-03-02T21:10:04.080Z,15.95
2023-03-02T21:12:30.829Z,20.25
2023-03-02T21:14:57.586Z,15.80
2023-03-02T21:17:25.604Z,14.20
2023-03-02T21:19:52.183Z,25.98
2023-03-02T21:22:20.688Z,19.33
2023-03-02T21:24:47.563Z,18.88
2023-03-02T21:27:14.168Z,20.65
2023-03-02T21:29:40.813Z,20.92
2023-03-02T21:32:07.984Z,20.10
2023-03-02T21:34:38.367Z,18.92
2023-03-02T21:37:05.196Z,16.02
2023-03-02T21:39:32.083Z,17.70
2023-03-02T21:42:00.330Z,18.60
2023-03-02T21:44:26.899Z,17.60
2023-03-02T21:46:53.979Z,15.32
2023-03-02T21:49:22.226Z,20.90
2023-03-02T21:51:49.874Z,18.67
2023-03-02T21:54:16.720Z,14.00
2023-03-02T21:56:43.613Z,12.20
2023-03-02T21:59:11.356Z,15.38
2023-03-02T22:01:38.001Z,16.35
2023-03-02T22:04:10.320Z,15.88
2023-03-02T22:06:37.664Z,13.07
2023-03-02T22:09:04.806Z,14.98
2023-03-02T22:11:35.572Z,15.50
2023-03-02T22:14:11.915Z,15.95
2023-03-02T22:16:41.371Z,13.15
2023-03-02T22:19:24.421Z,15.00
2023-03-02T22:21:52.298Z,18.23
2023-03-02T22:24:28.709Z,15.35
2023-03-02T22:27:02.816Z,13.80
2023-03-02T22:29:40.644Z,12.77
2023-03-02T22:32:35.283Z,19.10
2023-03-02T22:35:17.914Z,13.82
2023-03-02T22:37:44.528Z,14.82
2023-03-02T22:40:41.533Z,17.20
2023-03-02T22:43:29.420Z,11.95
2023-03-02T22:46:05.809Z,14.98
2023-03-02T22:48:34.968Z,14.38
2023-03-02T22:53:52.178Z,10.65
2023-03-02T22:56:39.344Z,10.18
2023-03-02T22:59:29.068Z,9.93
2023-03-02T23:02:01.092Z,10.52
2023-03-02T23:04:31.909Z,11.13
2023-03-02T23:07:00.820Z,10.35
2023-03-02T23:09:34.050Z,8.10
2023-03-02T23:12:23.083Z,17.70
2023-03-02T23:14:54.202Z,7.95
2023-03-02T23:17:27.127Z,7.60
2023-03-02T23:19:53.759Z,7.00
2023-03-02T23:22:20.525Z,6.72
2023-03-02T23:24:47.105Z,8.60
2023-03-02T23:27:13.782Z,8.18
2023-03-02T23:29:40.629Z,8.50
2023-03-02T23:32:07.592Z,13.13
2023-03-02T23:34:34.304Z,15.93
2023-03-02T23:37:01.130Z,14.85
2023-03-02T23:39:27.763Z,9.55
2023-03-02T23:41:54.326Z,8.52
2023-03-02T23:44:21.094Z,9.07
2023-03-02T23:46:48.069Z,7.30
2023-03-02T23:49:14.858Z,7.53
2023-03-02T23:51:41.523Z,9.75
2023-03-02T23:54:08.118Z,8.45
2023-03-02T23:56:35.406Z,8.80
2023-03-02T23:59:02.508Z,8.00
